sensor_id;sensor_type;location;lat;lon;timestamp;P1;durP1;ratioP1;P2;durP2;ratioP2
34900;SDS011;21112;51.976;5.660;2023-07-31T00:02:18;1.70;;;0.88;;
34900;SDS011;21112;51.976;5.660;2023-07-31T00:04:45;1.10;;;0.80;;
34900;SDS011;21112;51.976;5.660;2023-07-31T00:07:11;1.30;;;0.75;;
34900;SDS011;21112;51.976;5.660;2023-07-31T00:09:38;2.20;;;1.10;;
34900;SDS011;21112;51.976;5.660;2023-07-31T00:12:07;5.32;;;2.55;;
34900;SDS011;21112;51.976;5.660;2023-07-31T00:14:36;9.65;;;4.90;;
34900;SDS011;21112;51.976;5.660;2023-07-31T00:17:03;4.40;;;2.38;;
34900;SDS011;21112;51.976;5.660;2023-07-31T00:19:31;4.33;;;1.93;;
34900;SDS011;21112;51.976;5.660;2023-07-31T00:21:57;3.60;;;1.15;;
34900;SDS011;21112;51.976;5.660;2023-07-31T00:24:24;3.03;;;1.10;;
34900;SDS011;21112;51.976;5.660;2023-07-31T00:26:54;6.57;;;1.35;;
34900;SDS011;21112;51.976;5.660;2023-07-31T00:29:29;4.63;;;1.38;;
34900;SDS011;21112;51.976;5.660;2023-07-31T00:31:55;4.35;;;1.75;;
34900;SDS011;21112;51.976;5.660;2023-07-31T00:34:22;7.07;;;1.75;;
34900;SDS011;21112;51.976;5.660;2023-07-31T00:36:49;9.45;;;2.28;;
34900;SDS011;21112;51.976;5.660;2023-07-31T00:39:16;7.88;;;2.30;;
34900;SDS011;21112;51.976;5.660;2023-07-31T00:41:47;8.45;;;2.60;;
34900;SDS011;21112;51.976;5.660;2023-07-31T00:44:14;12.32;;;2.78;;
34900;SDS011;21112;51.976;5.660;2023-07-31T00:46:42;8.50;;;2.80;;
34900;SDS011;21112;51.976;5.660;2023-07-31T00:49:11;10.10;;;3.13;;
34900;SDS011;21112;51.976;5.660;2023-07-31T00:51:41;12.20;;;3.10;;
34900;SDS011;21112;51.976;5.660;2023-07-31T00:54:08;11.68;;;3.17;;
34900;SDS011;21112;51.976;5.660;2023-07-31T00:56:35;16.40;;;3.00;;
34900;SDS011;21112;51.976;5.660;2023-07-31T00:59:02;15.10;;;3.47;;
34900;SDS011;21112;51.976;5.660;2023-07-31T01:01:29;18.40;;;3.50;;
34900;SDS011;21112;51.976;5.660;2023-07-31T01:03:57;14.30;;;4.07;;
34900;SDS011;21112;51.976;5.660;2023-07-31T01:08:58;13.07;;;3.55;;
34900;SDS011;21112;51.976;5.660;2023-07-31T01:11:31;15.13;;;3.65;;
34900;SDS011;21112;51.976;5.660;2023-07-31T01:14:04;15.65;;;3.92;;
34900;SDS011;21112;51.976;5.660;2023-07-31T01:16:31;12.18;;;3.85;;
34900;SDS011;21112;51.976;5.660;2023-07-31T01:19:05;15.77;;;4.13;;
34900;SDS011;21112;51.976;5.660;2023-07-31T01:24:28;21.02;;;4.10;;
34900;SDS011;21112;51.976;5.660;2023-07-31T01:27:04;20.45;;;3.85;;
34900;SDS011;21112;51.976;5.660;2023-07-31T01:29:40;15.82;;;4.05;;
34900;SDS011;21112;51.976;5.660;2023-07-31T01:32:12;16.55;;;4.03;;
34900;SDS011;21112;51.976;5.660;2023-07-31T01:34:41;16.08;;;4.07;;
34900;SDS011;21112;51.976;5.660;2023-07-31T01:37:12;15.30;;;3.58;;
34900;SDS011;21112;51.976;5.660;2023-07-31T01:39:39;20.50;;;4.50;;
34900;SDS011;21112;51.976;5.660;2023-07-31T01:42:07;16.48;;;4.43;;
34900;SDS011;21112;51.976;5.660;2023-07-31T01:44:39;13.90;;;3.58;;
34900;SDS011;21112;51.976;5.660;2023-07-31T01:47:06;13.52;;;3.85;;
34900;SDS011;21112;51.976;5.660;2023-07-31T01:49:34;12.80;;;4.05;;
34900;SDS011;21112;51.976;5.660;2023-07-31T01:52:01;14.27;;;4.22;;
34900;SDS011;21112;51.976;5.660;2023-07-31T01:54:33;18.23;;;6.35;;
34900;SDS011;21112;51.976;5.660;2023-07-31T01:57:01;21.58;;;3.88;;
34900;SDS011;21112;51.976;5.660;2023-07-31T01:59:30;11.70;;;3.60;;
34900;SDS011;21112;51.976;5.660;2023-07-31T02:01:56;12.13;;;3.17;;
34900;SDS011;21112;51.976;5.660;2023-07-31T02:04:23;15.77;;;3.78;;
34900;SDS011;21112;51.976;5.660;2023-07-31T02:06:50;12.45;;;3.63;;
34900;SDS011;21112;51.976;5.660;2023-07-31T02:09:16;19.27;;;4.20;;
34900;SDS011;21112;51.976;5.660;2023-07-31T02:11:43;12.32;;;3.97;;
34900;SDS011;21112;51.976;5.660;2023-07-31T02:14:10;15.55;;;3.90;;
34900;SDS011;21112;51.976;5.660;2023-07-31T02:16:38;13.60;;;3.92;;
34900;SDS011;21112;51.976;5.660;2023-07-31T02:19:05;13.55;;;3.72;;
34900;SDS011;21112;51.976;5.660;2023-07-31T02:21:31;11.93;;;3.53;;
34900;SDS011;21112;51.976;5.660;2023-07-31T02:23:58;9.77;;;3.10;;
34900;SDS011;21112;51.976;5.660;2023-07-31T02:26:25;12.45;;;2.83;;
34900;SDS011;21112;51.976;5.660;2023-07-31T02:28:51;9.57;;;3.03;;
34900;SDS011;21112;51.976;5.660;2023-07-31T02:31:18;7.32;;;2.63;;
34900;SDS011;21112;51.976;5.660;2023-07-31T02:33:46;8.30;;;2.92;;
34900;SDS011;21112;51.976;5.660;2023-07-31T02:36:13;12.43;;;3.10;;
34900;SDS011;21112;51.976;5.660;2023-07-31T02:38:39;13.43;;;3.10;;
34900;SDS011;21112;51.976;5.660;2023-07-31T02:41:06;13.55;;;3.30;;
34900;SDS011;21112;51.976;5.660;2023-07-31T02:43:33;12.70;;;3.55;;
34900;SDS011;21112;51.976;5.660;2023-07-31T02:46:00;14.93;;;2.95;;
34900;SDS011;21112;51.976;5.660;2023-07-31T02:48:26;12.75;;;3.40;;
34900;SDS011;21112;51.976;5.660;2023-07-31T02:50:55;12.38;;;3.05;;
34900;SDS011;21112;51.976;5.660;2023-07-31T02:53:22;10.48;;;3.20;;
34900;SDS011;21112;51.976;5.660;2023-07-31T02:55:49;9.18;;;3.00;;
34900;SDS011;21112;51.976;5.660;2023-07-31T02:58:16;21.48;;;4.05;;
34900;SDS011;21112;51.976;5.660;2023-07-31T03:00:43;16.58;;;3.67;;
34900;SDS011;21112;51.976;5.660;2023-07-31T03:03:12;10.27;;;3.05;;
34900;SDS011;21112;51.976;5.660;2023-07-31T03:05:39;14.70;;;3.10;;
34900;SDS011;21112;51.976;5.660;2023-07-31T03:08:07;14.77;;;3.47;;
34900;SDS011;21112;51.976;5.660;2023-07-31T03:10:34;16.35;;;3.05;;
34900;SDS011;21112;51.976;5.660;2023-07-31T03:13:00;16.67;;;3.72;;
34900;SDS011;21112;51.976;5.660;2023-07-31T03:15:27;15.75;;;4.13;;
34900;SDS011;21112;51.976;5.660;2023-07-31T03:17:54;12.88;;;3.47;;
34900;SDS011;21112;51.976;5.660;2023-07-31T03:20:20;12.55;;;3.67;;
34900;SDS011;21112;51.976;5.660;2023-07-31T03:22:47;15.80;;;3.50;;
34900;SDS011;21112;51.976;5.660;2023-07-31T03:25:15;13.63;;;3.47;;
34900;SDS011;21112;51.976;5.660;2023-07-31T03:27:42;7.00;;;2.58;;
34900;SDS011;21112;51.976;5.660;2023-07-31T03:30:09;16.38;;;3.33;;
34900;SDS011;21112;51.976;5.660;2023-07-31T03:32:36;11.15;;;3.10;;
34900;SDS011;21112;51.976;5.660;2023-07-31T03:35:03;14.30;;;3.55;;
34900;SDS011;21112;51.976;5.660;2023-07-31T03:37:32;17.10;;;3.38;;
34900;SDS011;21112;51.976;5.660;2023-07-31T03:39:59;16.77;;;3.50;;
34900;SDS011;21112;51.976;5.660;2023-07-31T03:42:27;11.73;;;3.33;;
34900;SDS011;21112;51.976;5.660;2023-07-31T03:44:54;17.17;;;3.22;;
34900;SDS011;21112;51.976;5.660;2023-07-31T03:47:21;13.52;;;3.20;;
34900;SDS011;21112;51.976;5.660;2023-07-31T03:49:48;10.95;;;2.92;;
34900;SDS011;21112;51.976;5.660;2023-07-31T03:52:14;15.02;;;3.15;;
34900;SDS011;21112;51.976;5.660;2023-07-31T03:54:41;13.63;;;3.22;;
34900;SDS011;21112;51.976;5.660;2023-07-31T03:57:11;14.07;;;3.73;;
34900;SDS011;21112;51.976;5.660;2023-07-31T03:59:39;12.25;;;3.33;;
34900;SDS011;21112;51.976;5.660;2023-07-31T04:02:05;16.27;;;3.35;;
34900;SDS011;21112;51.976;5.660;2023-07-31T04:04:32;13.50;;;3.80;;
34900;SDS011;21112;51.976;5.660;2023-07-31T04:06:59;14.32;;;3.70;;
34900;SDS011;21112;51.976;5.660;2023-07-31T04:09:26;12.82;;;3.50;;
34900;SDS011;21112;51.976;5.660;2023-07-31T04:11:52;15.57;;;3.25;;
34900;SDS011;21112;51.976;5.660;2023-07-31T04:14:19;15.55;;;3.40;;
34900;SDS011;21112;51.976;5.660;2023-07-31T04:16:48;12.85;;;2.92;;
34900;SDS011;21112;51.976;5.660;2023-07-31T04:19:15;13.68;;;4.05;;
34900;SDS011;21112;51.976;5.660;2023-07-31T04:21:42;12.55;;;3.58;;
34900;SDS011;21112;51.976;5.660;2023-07-31T04:24:09;19.77;;;3.30;;
34900;SDS011;21112;51.976;5.660;2023-07-31T04:26:36;14.75;;;4.05;;
34900;SDS011;21112;51.976;5.660;2023-07-31T04:29:02;14.25;;;4.40;;
34900;SDS011;21112;51.976;5.660;2023-07-31T04:31:29;20.70;;;3.65;;
34900;SDS011;21112;51.976;5.660;2023-07-31T04:33:57;12.98;;;3.03;;
34900;SDS011;21112;51.976;5.660;2023-07-31T04:36:24;15.70;;;3.50;;
34900;SDS011;21112;51.976;5.660;2023-07-31T04:38:53;11.07;;;3.40;;
34900;SDS011;21112;51.976;5.660;2023-07-31T04:41:19;12.65;;;3.15;;
34900;SDS011;21112;51.976;5.660;2023-07-31T04:43:46;12.63;;;3.13;;
34900;SDS011;21112;51.976;5.660;2023-07-31T04:46:13;13.48;;;3.63;;
34900;SDS011;21112;51.976;5.660;2023-07-31T04:48:40;11.63;;;2.97;;
34900;SDS011;21112;51.976;5.660;2023-07-31T04:51:08;13.52;;;3.00;;
34900;SDS011;21112;51.976;5.660;2023-07-31T04:53:36;17.23;;;3.45;;
34900;SDS011;21112;51.976;5.660;2023-07-31T04:56:03;15.90;;;3.30;;
34900;SDS011;21112;51.976;5.660;2023-07-31T04:58:30;17.80;;;5.15;;
34900;SDS011;21112;51.976;5.660;2023-07-31T05:00:57;18.65;;;4.10;;
34900;SDS011;21112;51.976;5.660;2023-07-31T05:03:23;13.70;;;3.75;;
34900;SDS011;21112;51.976;5.660;2023-07-31T05:05:50;15.35;;;3.05;;
34900;SDS011;21112;51.976;5.660;2023-07-31T05:08:19;15.63;;;3.25;;
34900;SDS011;21112;51.976;5.660;2023-07-31T05:10:46;10.50;;;2.97;;
34900;SDS011;21112;51.976;5.660;2023-07-31T05:13:13;15.35;;;3.38;;
34900;SDS011;21112;51.976;5.660;2023-07-31T05:15:43;14.23;;;3.13;;
34900;SDS011;21112;51.976;5.660;2023-07-31T05:18:10;12.20;;;3.38;;
34900;SDS011;21112;51.976;5.660;2023-07-31T05:20:36;13.10;;;3.40;;
34900;SDS011;21112;51.976;5.660;2023-07-31T05:23:03;9.20;;;3.03;;
34900;SDS011;21112;51.976;5.660;2023-07-31T05:25:31;12.15;;;2.95;;
34900;SDS011;21112;51.976;5.660;2023-07-31T05:27:58;10.80;;;3.03;;
34900;SDS011;21112;51.976;5.660;2023-07-31T05:30:25;9.18;;;3.03;;
34900;SDS011;21112;51.976;5.660;2023-07-31T05:32:52;18.45;;;6.70;;
34900;SDS011;21112;51.976;5.660;2023-07-31T05:35:18;13.77;;;3.50;;
34900;SDS011;21112;51.976;5.660;2023-07-31T05:37:45;14.27;;;3.58;;
34900;SDS011;21112;51.976;5.660;2023-07-31T05:40:12;12.60;;;3.40;;
34900;SDS011;21112;51.976;5.660;2023-07-31T05:42:43;8.40;;;3.22;;
34900;SDS011;21112;51.976;5.660;2023-07-31T05:45:09;8.32;;;2.63;;
34900;SDS011;21112;51.976;5.660;2023-07-31T05:47:37;9.50;;;3.25;;
34900;SDS011;21112;51.976;5.660;2023-07-31T05:50:06;10.30;;;3.53;;
34900;SDS011;21112;51.976;5.660;2023-07-31T05:52:36;8.15;;;3.08;;
34900;SDS011;21112;51.976;5.660;2023-07-31T05:55:05;10.85;;;2.90;;
34900;SDS011;21112;51.976;5.660;2023-07-31T05:57:33;15.55;;;3.13;;
34900;SDS011;21112;51.976;5.660;2023-07-31T06:00:04;8.20;;;2.97;;
34900;SDS011;21112;51.976;5.660;2023-07-31T06:02:32;7.63;;;2.53;;
34900;SDS011;21112;51.976;5.660;2023-07-31T06:05:01;9.18;;;2.90;;
34900;SDS011;21112;51.976;5.660;2023-07-31T06:07:30;9.43;;;2.85;;
34900;SDS011;21112;51.976;5.660;2023-07-31T06:09:57;14.77;;;3.20;;
34900;SDS011;21112;51.976;5.660;2023-07-31T06:12:28;9.15;;;2.70;;
34900;SDS011;21112;51.976;5.660;2023-07-31T06:14:55;10.38;;;2.60;;
34900;SDS011;21112;51.976;5.660;2023-07-31T06:17:23;11.10;;;2.90;;
34900;SDS011;21112;51.976;5.660;2023-07-31T06:19:51;7.35;;;2.72;;
34900;SDS011;21112;51.976;5.660;2023-07-31T06:22:21;9.90;;;2.45;;
34900;SDS011;21112;51.976;5.660;2023-07-31T06:24:56;6.90;;;2.22;;
34900;SDS011;21112;51.976;5.660;2023-07-31T06:27:23;8.77;;;2.53;;
34900;SDS011;21112;51.976;5.660;2023-07-31T06:29:49;7.80;;;2.55;;
34900;SDS011;21112;51.976;5.660;2023-07-31T06:32:16;9.50;;;2.40;;
34900;SDS011;21112;51.976;5.660;2023-07-31T06:34:45;7.45;;;2.38;;
34900;SDS011;21112;51.976;5.660;2023-07-31T06:37:12;9.45;;;2.63;;
34900;SDS011;21112;51.976;5.660;2023-07-31T06:39:39;8.65;;;2.67;;
34900;SDS011;21112;51.976;5.660;2023-07-31T06:42:06;5.32;;;1.85;;
34900;SDS011;21112;51.976;5.660;2023-07-31T06:44:34;6.50;;;2.10;;
34900;SDS011;21112;51.976;5.660;2023-07-31T06:47:01;6.82;;;2.38;;
34900;SDS011;21112;51.976;5.660;2023-07-31T06:49:28;5.70;;;2.30;;
34900;SDS011;21112;51.976;5.660;2023-07-31T06:51:56;5.50;;;2.08;;
34900;SDS011;21112;51.976;5.660;2023-07-31T06:54:23;6.00;;;2.10;;
34900;SDS011;21112;51.976;5.660;2023-07-31T06:56:50;6.72;;;2.10;;
34900;SDS011;21112;51.976;5.660;2023-07-31T06:59:16;6.65;;;1.88;;
34900;SDS011;21112;51.976;5.660;2023-07-31T07:01:43;6.35;;;1.98;;
34900;SDS011;21112;51.976;5.660;2023-07-31T07:04:10;5.68;;;1.95;;
34900;SDS011;21112;51.976;5.660;2023-07-31T07:06:39;5.28;;;1.50;;
34900;SDS011;21112;51.976;5.660;2023-07-31T07:09:07;3.10;;;1.38;;
34900;SDS011;21112;51.976;5.660;2023-07-31T07:11:34;3.60;;;1.27;;
34900;SDS011;21112;51.976;5.660;2023-07-31T07:14:02;4.73;;;1.20;;
34900;SDS011;21112;51.976;5.660;2023-07-31T07:16:29;2.72;;;1.23;;
34900;SDS011;21112;51.976;5.660;2023-07-31T07:18:56;2.75;;;1.02;;
34900;SDS011;21112;51.976;5.660;2023-07-31T07:21:25;2.80;;;1.05;;
34900;SDS011;21112;51.976;5.660;2023-07-31T07:26:19;4.70;;;1.08;;
34900;SDS011;21112;51.976;5.660;2023-07-31T07:28:46;3.53;;;1.33;;
34900;SDS011;21112;51.976;5.660;2023-07-31T07:31:13;3.10;;;1.40;;
34900;SDS011;21112;51.976;5.660;2023-07-31T07:33:40;3.03;;;1.42;;
34900;SDS011;21112;51.976;5.660;2023-07-31T07:36:07;5.85;;;2.40;;
34900;SDS011;21112;51.976;5.660;2023-07-31T07:38:35;5.60;;;2.55;;
34900;SDS011;21112;51.976;5.660;2023-07-31T07:41:02;4.80;;;1.92;;
34900;SDS011;21112;51.976;5.660;2023-07-31T07:43:30;3.60;;;1.60;;
34900;SDS011;21112;51.976;5.660;2023-07-31T07:45:57;4.70;;;1.80;;
34900;SDS011;21112;51.976;5.660;2023-07-31T07:48:23;5.65;;;1.80;;
34900;SDS011;21112;51.976;5.660;2023-07-31T07:50:51;6.97;;;3.35;;
34900;SDS011;21112;51.976;5.660;2023-07-31T07:53:18;3.85;;;1.83;;
34900;SDS011;21112;51.976;5.660;2023-07-31T07:55:44;3.05;;;1.33;;
34900;SDS011;21112;51.976;5.660;2023-07-31T07:58:13;4.90;;;1.38;;
34900;SDS011;21112;51.976;5.660;2023-07-31T08:00:41;3.45;;;1.40;;
34900;SDS011;21112;51.976;5.660;2023-07-31T08:03:08;3.13;;;1.30;;
34900;SDS011;21112;51.976;5.660;2023-07-31T08:05:34;1.92;;;1.15;;
34900;SDS011;21112;51.976;5.660;2023-07-31T08:08:01;6.65;;;1.30;;
34900;SDS011;21112;51.976;5.660;2023-07-31T08:10:28;2.35;;;1.13;;
34900;SDS011;21112;51.976;5.660;2023-07-31T08:12:55;2.90;;;1.13;;
34900;SDS011;21112;51.976;5.660;2023-07-31T08:15:21;2.58;;;1.30;;
34900;SDS011;21112;51.976;5.660;2023-07-31T08:17:50;2.97;;;1.40;;
34900;SDS011;21112;51.976;5.660;2023-07-31T08:20:17;3.15;;;1.27;;
34900;SDS011;21112;51.976;5.660;2023-07-31T08:22:45;3.10;;;1.30;;
34900;SDS011;21112;51.976;5.660;2023-07-31T08:25:12;4.38;;;1.33;;
34900;SDS011;21112;51.976;5.660;2023-07-31T08:27:42;4.78;;;1.77;;
34900;SDS011;21112;51.976;5.660;2023-07-31T08:30:12;2.63;;;1.33;;
34900;SDS011;21112;51.976;5.660;2023-07-31T08:32:39;1.98;;;1.30;;
34900;SDS011;21112;51.976;5.660;2023-07-31T08:35:07;6.13;;;2.08;;
34900;SDS011;21112;51.976;5.660;2023-07-31T08:40:00;3.80;;;1.45;;
34900;SDS011;21112;51.976;5.660;2023-07-31T08:42:28;3.47;;;1.55;;
34900;SDS011;21112;51.976;5.660;2023-07-31T08:44:55;3.17;;;1.45;;
34900;SDS011;21112;51.976;5.660;2023-07-31T08:47:22;1.52;;;1.10;;
34900;SDS011;21112;51.976;5.660;2023-07-31T08:49:50;3.00;;;1.10;;
34900;SDS011;21112;51.976;5.660;2023-07-31T08:52:21;5.25;;;1.05;;
34900;SDS011;21112;51.976;5.660;2023-07-31T08:54:49;3.65;;;1.27;;
34900;SDS011;21112;51.976;5.660;2023-07-31T08:57:15;1.73;;;1.08;;
34900;SDS011;21112;51.976;5.660;2023-07-31T08:59:43;5.70;;;1.40;;
34900;SDS011;21112;51.976;5.660;2023-07-31T09:02:11;2.70;;;1.17;;
34900;SDS011;21112;51.976;5.660;2023-07-31T09:04:44;2.80;;;1.27;;
34900;SDS011;21112;51.976;5.660;2023-07-31T09:07:11;2.47;;;1.40;;
34900;SDS011;21112;51.976;5.660;2023-07-31T09:12:26;2.60;;;1.40;;
34900;SDS011;21112;51.976;5.660;2023-07-31T09:15:04;2.78;;;1.77;;
34900;SDS011;21112;51.976;5.660;2023-07-31T09:17:32;3.78;;;2.00;;
34900;SDS011;21112;51.976;5.660;2023-07-31T09:20:07;4.13;;;2.10;;
34900;SDS011;21112;51.976;5.660;2023-07-31T09:22:40;2.85;;;1.85;;
34900;SDS011;21112;51.976;5.660;2023-07-31T09:25:19;2.53;;;1.53;;
34900;SDS011;21112;51.976;5.660;2023-07-31T09:27:47;4.60;;;1.80;;
34900;SDS011;21112;51.976;5.660;2023-07-31T09:30:15;4.82;;;2.03;;
34900;SDS011;21112;51.976;5.660;2023-07-31T09:32:47;7.00;;;2.35;;
34900;SDS011;21112;51.976;5.660;2023-07-31T09:35:20;5.55;;;2.20;;
34900;SDS011;21112;51.976;5.660;2023-07-31T09:37:48;5.57;;;2.30;;
34900;SDS011;21112;51.976;5.660;2023-07-31T09:40:27;7.90;;;2.55;;
34900;SDS011;21112;51.976;5.660;2023-07-31T09:42:59;5.82;;;2.35;;
34900;SDS011;21112;51.976;5.660;2023-07-31T09:45:27;5.38;;;2.58;;
34900;SDS011;21112;51.976;5.660;2023-07-31T09:47:56;6.00;;;3.00;;
34900;SDS011;21112;51.976;5.660;2023-07-31T09:50:24;8.73;;;3.47;;
34900;SDS011;21112;51.976;5.660;2023-07-31T09:52:51;5.35;;;3.15;;
34900;SDS011;21112;51.976;5.660;2023-07-31T09:55:18;5.93;;;2.80;;
34900;SDS011;21112;51.976;5.660;2023-07-31T09:57:47;6.03;;;3.17;;
34900;SDS011;21112;51.976;5.660;2023-07-31T10:00:21;6.97;;;3.00;;
34900;SDS011;21112;51.976;5.660;2023-07-31T10:02:50;8.95;;;3.50;;
34900;SDS011;21112;51.976;5.660;2023-07-31T10:05:17;6.10;;;2.95;;
34900;SDS011;21112;51.976;5.660;2023-07-31T10:07:50;7.25;;;3.17;;
34900;SDS011;21112;51.976;5.660;2023-07-31T10:10:20;6.65;;;3.30;;
34900;SDS011;21112;51.976;5.660;2023-07-31T10:12:51;8.38;;;3.17;;
34900;SDS011;21112;51.976;5.660;2023-07-31T10:15:19;7.40;;;3.25;;
34900;SDS011;21112;51.976;5.660;2023-07-31T10:17:47;5.78;;;3.47;;
34900;SDS011;21112;51.976;5.660;2023-07-31T10:20:15;6.85;;;3.42;;
34900;SDS011;21112;51.976;5.660;2023-07-31T10:22:44;5.45;;;3.15;;
34900;SDS011;21112;51.976;5.660;2023-07-31T10:25:14;11.45;;;4.35;;
34900;SDS011;21112;51.976;5.660;2023-07-31T10:27:42;7.88;;;3.67;;
34900;SDS011;21112;51.976;5.660;2023-07-31T10:30:14;6.22;;;3.28;;
34900;SDS011;21112;51.976;5.660;2023-07-31T10:32:43;7.30;;;3.33;;
34900;SDS011;21112;51.976;5.660;2023-07-31T10:35:13;8.05;;;3.38;;
34900;SDS011;21112;51.976;5.660;2023-07-31T10:37:42;11.02;;;3.65;;
34900;SDS011;21112;51.976;5.660;2023-07-31T10:40:10;9.07;;;3.47;;
34900;SDS011;21112;51.976;5.660;2023-07-31T10:42:45;6.88;;;3.25;;
34900;SDS011;21112;51.976;5.660;2023-07-31T10:45:23;9.15;;;3.28;;
34900;SDS011;21112;51.976;5.660;2023-07-31T10:47:58;10.20;;;3.83;;
34900;SDS011;21112;51.976;5.660;2023-07-31T10:50:26;8.40;;;3.92;;
34900;SDS011;21112;51.976;5.660;2023-07-31T10:52:53;6.47;;;3.08;;
34900;SDS011;21112;51.976;5.660;2023-07-31T10:55:30;8.50;;;4.03;;
34900;SDS011;21112;51.976;5.660;2023-07-31T10:58:00;5.47;;;2.95;;
34900;SDS011;21112;51.976;5.660;2023-07-31T11:00:33;7.55;;;3.65;;
34900;SDS011;21112;51.976;5.660;2023-07-31T11:03:03;10.70;;;3.67;;
34900;SDS011;21112;51.976;5.660;2023-07-31T11:05:50;10.82;;;3.25;;
34900;SDS011;21112;51.976;5.660;2023-07-31T11:08:19;7.60;;;3.20;;
34900;SDS011;21112;51.976;5.660;2023-07-31T11:10:51;8.90;;;2.80;;
34900;SDS011;21112;51.976;5.660;2023-07-31T11:13:32;6.72;;;3.35;;
34900;SDS011;21112;51.976;5.660;2023-07-31T11:16:01;8.30;;;2.63;;
34900;SDS011;21112;51.976;5.660;2023-07-31T11:18:28;8.48;;;3.25;;
34900;SDS011;21112;51.976;5.660;2023-07-31T11:20:55;6.15;;;2.85;;
34900;SDS011;21112;51.976;5.660;2023-07-31T11:23:22;8.02;;;2.72;;
34900;SDS011;21112;51.976;5.660;2023-07-31T11:25:49;8.15;;;3.13;;
34900;SDS011;21112;51.976;5.660;2023-07-31T11:28:17;7.68;;;3.50;;
34900;SDS011;21112;51.976;5.660;2023-07-31T11:30:45;5.97;;;2.95;;
34900;SDS011;21112;51.976;5.660;2023-07-31T11:33:16;7.32;;;3.53;;
34900;SDS011;21112;51.976;5.660;2023-07-31T11:35:43;7.68;;;3.10;;
34900;SDS011;21112;51.976;5.660;2023-07-31T11:38:20;7.40;;;3.28;;
34900;SDS011;21112;51.976;5.660;2023-07-31T11:40:49;7.45;;;2.90;;
34900;SDS011;21112;51.976;5.660;2023-07-31T11:43:16;6.07;;;2.65;;
34900;SDS011;21112;51.976;5.660;2023-07-31T11:45:45;5.07;;;2.63;;
34900;SDS011;21112;51.976;5.660;2023-07-31T11:48:20;5.22;;;2.50;;
34900;SDS011;21112;51.976;5.660;2023-07-31T11:50:49;5.97;;;2.70;;
34900;SDS011;21112;51.976;5.660;2023-07-31T11:55:45;5.45;;;2.42;;
34900;SDS011;21112;51.976;5.660;2023-07-31T11:58:12;5.45;;;2.53;;
34900;SDS011;21112;51.976;5.660;2023-07-31T12:00:49;7.50;;;2.10;;
34900;SDS011;21112;51.976;5.660;2023-07-31T12:03:17;4.93;;;2.38;;
34900;SDS011;21112;51.976;5.660;2023-07-31T12:05:48;4.72;;;2.28;;
34900;SDS011;21112;51.976;5.660;2023-07-31T12:08:15;3.67;;;2.10;;
34900;SDS011;21112;51.976;5.660;2023-07-31T12:10:41;4.47;;;1.85;;
34900;SDS011;21112;51.976;5.660;2023-07-31T12:13:11;2.63;;;1.60;;
34900;SDS011;21112;51.976;5.660;2023-07-31T12:15:48;3.90;;;1.77;;
34900;SDS011;21112;51.976;5.660;2023-07-31T12:18:20;5.03;;;2.08;;
34900;SDS011;21112;51.976;5.660;2023-07-31T12:20:49;5.43;;;2.40;;
34900;SDS011;21112;51.976;5.660;2023-07-31T12:23:21;3.55;;;1.98;;
34900;SDS011;21112;51.976;5.660;2023-07-31T12:25:59;9.18;;;2.50;;
34900;SDS011;21112;51.976;5.660;2023-07-31T12:28:26;5.47;;;2.17;;
34900;SDS011;21112;51.976;5.660;2023-07-31T12:30:59;5.22;;;2.30;;
34900;SDS011;21112;51.976;5.660;2023-07-31T12:33:30;6.63;;;2.38;;
34900;SDS011;21112;51.976;5.660;2023-07-31T12:36:00;4.15;;;2.40;;
34900;SDS011;21112;51.976;5.660;2023-07-31T12:38:27;6.80;;;2.63;;
34900;SDS011;21112;51.976;5.660;2023-07-31T12:40:54;5.97;;;2.50;;
34900;SDS011;21112;51.976;5.660;2023-07-31T12:43:20;4.68;;;2.30;;
34900;SDS011;21112;51.976;5.660;2023-07-31T12:45:47;6.82;;;2.95;;
34900;SDS011;21112;51.976;5.660;2023-07-31T12:48:14;7.07;;;2.88;;
34900;SDS011;21112;51.976;5.660;2023-07-31T12:50:41;6.25;;;2.97;;
34900;SDS011;21112;51.976;5.660;2023-07-31T12:53:09;8.57;;;3.00;;
34900;SDS011;21112;51.976;5.660;2023-07-31T12:55:36;6.50;;;2.75;;
34900;SDS011;21112;51.976;5.660;2023-07-31T12:58:03;6.55;;;2.78;;
34900;SDS011;21112;51.976;5.660;2023-07-31T13:00:30;6.78;;;2.88;;
34900;SDS011;21112;51.976;5.660;2023-07-31T13:02:59;9.68;;;3.22;;
34900;SDS011;21112;51.976;5.660;2023-07-31T13:05:26;5.95;;;2.92;;
34900;SDS011;21112;51.976;5.660;2023-07-31T13:07:53;8.70;;;3.17;;
34900;SDS011;21112;51.976;5.660;2023-07-31T13:10:22;8.60;;;3.15;;
34900;SDS011;21112;51.976;5.660;2023-07-31T13:12:53;7.47;;;3.55;;
34900;SDS011;21112;51.976;5.660;2023-07-31T13:15:20;9.60;;;3.95;;
34900;SDS011;21112;51.976;5.660;2023-07-31T13:17:47;5.88;;;3.35;;
34900;SDS011;21112;51.976;5.660;2023-07-31T13:20:14;6.90;;;3.28;;
34900;SDS011;21112;51.976;5.660;2023-07-31T13:22:45;5.43;;;2.95;;
34900;SDS011;21112;51.976;5.660;2023-07-31T13:25:12;6.60;;;3.25;;
34900;SDS011;21112;51.976;5.660;2023-07-31T13:27:40;8.63;;;3.13;;
34900;SDS011;21112;51.976;5.660;2023-07-31T13:30:07;9.95;;;5.60;;
34900;SDS011;21112;51.976;5.660;2023-07-31T13:32:35;10.07;;;5.03;;
34900;SDS011;21112;51.976;5.660;2023-07-31T13:37:30;7.78;;;3.17;;
34900;SDS011;21112;51.976;5.660;2023-07-31T13:39:57;6.35;;;2.88;;
34900;SDS011;21112;51.976;5.660;2023-07-31T13:42:24;6.43;;;2.88;;
34900;SDS011;21112;51.976;5.660;2023-07-31T13:44:52;6.18;;;2.78;;
34900;SDS011;21112;51.976;5.660;2023-07-31T13:47:21;5.85;;;2.72;;
34900;SDS011;21112;51.976;5.660;2023-07-31T13:49:48;8.10;;;3.05;;
34900;SDS011;21112;51.976;5.660;2023-07-31T13:52:14;6.95;;;2.97;;
34900;SDS011;21112;51.976;5.660;2023-07-31T13:54:41;4.68;;;2.35;;
34900;SDS011;21112;51.976;5.660;2023-07-31T13:57:08;5.75;;;3.10;;
34900;SDS011;21112;51.976;5.660;2023-07-31T13:59:35;9.18;;;3.20;;
34900;SDS011;21112;51.976;5.660;2023-07-31T14:02:03;13.02;;;5.03;;
34900;SDS011;21112;51.976;5.660;2023-07-31T14:04:30;8.05;;;3.47;;
34900;SDS011;21112;51.976;5.660;2023-07-31T14:06:57;7.20;;;3.25;;
34900;SDS011;21112;51.976;5.660;2023-07-31T14:09:25;8.00;;;3.38;;
34900;SDS011;21112;51.976;5.660;2023-07-31T14:11:52;6.40;;;3.30;;
34900;SDS011;21112;51.976;5.660;2023-07-31T14:14:19;6.25;;;3.10;;
34900;SDS011;21112;51.976;5.660;2023-07-31T14:16:46;8.20;;;3.50;;
34900;SDS011;21112;51.976;5.660;2023-07-31T14:19:17;8.32;;;3.40;;
34900;SDS011;21112;51.976;5.660;2023-07-31T14:21:44;7.88;;;3.25;;
34900;SDS011;21112;51.976;5.660;2023-07-31T14:24:10;7.72;;;3.55;;
34900;SDS011;21112;51.976;5.660;2023-07-31T14:26:37;8.15;;;3.08;;
34900;SDS011;21112;51.976;5.660;2023-07-31T14:29:04;9.32;;;3.20;;
34900;SDS011;21112;51.976;5.660;2023-07-31T14:31:31;6.88;;;2.97;;
34900;SDS011;21112;51.976;5.660;2023-07-31T14:33:57;7.25;;;3.50;;
34900;SDS011;21112;51.976;5.660;2023-07-31T14:36:26;4.90;;;2.50;;
34900;SDS011;21112;51.976;5.660;2023-07-31T14:38:52;5.97;;;2.47;;
34900;SDS011;21112;51.976;5.660;2023-07-31T14:41:19;6.82;;;2.80;;
34900;SDS011;21112;51.976;5.660;2023-07-31T14:43:46;4.97;;;2.40;;
34900;SDS011;21112;51.976;5.660;2023-07-31T14:46:13;7.57;;;2.72;;
34900;SDS011;21112;51.976;5.660;2023-07-31T14:48:40;8.00;;;2.75;;
34900;SDS011;21112;51.976;5.660;2023-07-31T14:51:07;6.22;;;2.78;;
34900;SDS011;21112;51.976;5.660;2023-07-31T14:53:35;7.15;;;2.55;;
34900;SDS011;21112;51.976;5.660;2023-07-31T14:56:01;8.60;;;2.95;;
34900;SDS011;21112;51.976;5.660;2023-07-31T14:58:28;9.32;;;3.53;;
34900;SDS011;21112;51.976;5.660;2023-07-31T15:00:58;10.88;;;4.70;;
34900;SDS011;21112;51.976;5.660;2023-07-31T15:03:25;11.52;;;3.20;;
34900;SDS011;21112;51.976;5.660;2023-07-31T15:05:51;7.00;;;2.92;;
34900;SDS011;21112;51.976;5.660;2023-07-31T15:08:18;10.63;;;4.35;;